createdAt,value
2022-09-07T03:51:51.319Z,18.28
2022-09-07T03:54:54.230Z,18.28
2022-09-07T03:57:57.165Z,17.89
2022-09-07T04:01:04.379Z,17.93
2022-09-07T04:04:07.088Z,17.93
2022-09-07T04:07:10.183Z,17.96
2022-09-07T04:10:12.745Z,18.00
2022-09-07T04:13:14.993Z,18.05
2022-09-07T04:16:20.808Z,18.09
2022-09-07T04:19:23.599Z,18.08
2022-09-07T04:22:26.463Z,18.08
2022-09-07T04:25:28.724Z,18.12
2022-09-07T04:28:31.634Z,18.15
2022-09-07T04:31:35.449Z,18.15
2022-09-07T04:34:38.179Z,18.16
2022-09-07T04:37:40.859Z,18.19
2022-09-07T04:40:44.069Z,18.19
2022-09-07T04:43:47.207Z,18.18
2022-09-07T04:46:49.866Z,18.20
2022-09-07T04:49:53.143Z,18.13
2022-09-07T04:52:55.783Z,18.13
2022-09-07T04:55:58.736Z,18.19
2022-09-07T04:59:01.871Z,18.16
2022-09-07T05:02:04.320Z,18.19
2022-09-07T05:05:07.467Z,18.27
2022-09-07T05:08:09.862Z,18.31
2022-09-07T05:11:14.072Z,18.35
2022-09-07T05:14:16.414Z,18.41
2022-09-07T05:17:19.711Z,18.47
2022-09-07T05:20:22.244Z,18.53
2022-09-07T05:23:25.393Z,18.64
2022-09-07T05:26:30.632Z,18.75
2022-09-07T05:32:56.428Z,18.97
2022-09-07T05:35:59.402Z,19.16
2022-09-07T05:39:01.678Z,19.22
2022-09-07T05:42:04.706Z,19.27
2022-09-07T05:45:07.549Z,19.36
2022-09-07T05:48:10.383Z,19.40
2022-09-07T05:51:14.590Z,19.51
2022-09-07T05:54:17.280Z,19.67
2022-09-07T05:57:19.784Z,19.68
2022-09-07T06:00:22.611Z,19.73
2022-09-07T06:03:25.378Z,19.87
2022-09-07T06:06:27.791Z,19.95
2022-09-07T06:09:30.859Z,19.97
2022-09-07T06:12:33.844Z,20.03
2022-09-07T06:15:36.524Z,20.22
2022-09-07T06:18:41.346Z,20.23
2022-09-07T06:21:44.011Z,20.20
2022-09-07T06:24:46.529Z,20.18
2022-09-07T06:27:49.648Z,20.37
2022-09-07T06:30:52.055Z,20.40
2022-09-07T06:33:57.302Z,20.51
2022-09-07T06:36:59.879Z,20.47
2022-09-07T06:40:03.766Z,20.51
2022-09-07T06:43:06.273Z,20.55
2022-09-07T06:49:31.301Z,21.24
2022-09-07T06:55:58.459Z,21.67
2022-09-07T06:59:01.214Z,21.60
2022-09-07T07:02:04.834Z,21.69
2022-09-07T07:05:07.790Z,21.86
2022-09-07T07:08:10.245Z,21.84
2022-09-07T07:11:13.713Z,21.70
2022-09-07T07:14:16.422Z,21.55
2022-09-07T07:17:18.974Z,21.59
2022-09-07T07:20:21.817Z,21.76
2022-09-07T07:23:24.725Z,21.99
2022-09-07T07:26:27.160Z,22.21
2022-09-07T07:29:29.908Z,22.39
2022-09-07T07:32:32.231Z,22.51
2022-09-07T07:35:35.308Z,22.73
2022-09-07T07:42:03.232Z,22.76
2022-09-07T07:48:34.325Z,23.32
2022-09-07T07:54:59.787Z,23.36
2022-09-07T07:58:02.093Z,23.49
2022-09-07T08:01:12.820Z,23.37
2022-09-07T08:04:15.479Z,23.55
2022-09-07T08:07:17.845Z,23.85
2022-09-07T08:10:20.551Z,24.03
2022-09-07T08:13:22.885Z,24.35
2022-09-07T08:16:25.929Z,24.46
2022-09-07T08:19:28.545Z,24.48
2022-09-07T08:22:34.765Z,23.94
2022-09-07T08:25:37.538Z,24.20
2022-09-07T08:28:44.008Z,24.26
2022-09-07T08:31:46.509Z,24.32
2022-09-07T08:34:49.380Z,24.47
2022-09-07T08:37:51.760Z,24.56
2022-09-07T08:40:54.597Z,24.63
2022-09-07T08:44:03.509Z,24.62
2022-09-07T08:47:33.673Z,24.84
2022-09-07T08:50:45.938Z,24.94
2022-09-07T08:53:50.208Z,25.17
2022-09-07T09:00:19.071Z,25.36
2022-09-07T09:04:14.674Z,25.87
2022-09-07T09:07:10.525Z,26.72
2022-09-07T09:10:28.782Z,27.04
2022-09-07T09:13:52.074Z,27.48
2022-09-07T09:16:59.763Z,27.62
2022-09-07T09:20:05.611Z,27.35
2022-09-07T09:23:15.866Z,27.29
2022-09-07T09:26:24.181Z,27.20
2022-09-07T09:29:26.496Z,27.14
2022-09-07T09:33:13.983Z,27.01
2022-09-07T09:36:34.240Z,27.02
2022-09-07T09:39:38.472Z,27.09
2022-09-07T09:42:40.900Z,27.22
2022-09-07T09:49:23.977Z,27.31
2022-09-07T09:52:33.785Z,27.38
2022-09-07T09:55:40.951Z,27.32
2022-09-07T10:05:51.703Z,27.65
2022-09-07T10:08:59.268Z,27.79
2022-09-07T10:12:07.006Z,27.90
2022-09-07T10:15:28.599Z,27.96
2022-09-07T10:18:38.403Z,28.04
2022-09-07T10:21:41.100Z,28.20
2022-09-07T10:24:43.818Z,28.25
2022-09-07T10:27:46.780Z,28.57
2022-09-07T10:31:01.542Z,28.57
2022-09-07T10:34:26.039Z,28.52
2022-09-07T10:38:08.439Z,28.32
2022-09-07T10:41:11.509Z,28.15
2022-09-07T10:44:49.440Z,28.02
2022-09-07T10:48:02.297Z,28.24
2022-09-07T10:51:14.451Z,28.18
2022-09-07T10:54:31.890Z,28.33
2022-09-07T10:57:56.718Z,28.48
2022-09-07T11:01:21.673Z,28.77
2022-09-07T11:04:34.075Z,28.68
2022-09-07T11:07:51.726Z,28.65
2022-09-07T11:15:09.584Z,28.94
2022-09-07T11:18:22.602Z,28.85
2022-09-07T11:28:33.112Z,28.53
2022-09-07T11:31:45.103Z,28.38
2022-09-07T11:34:57.457Z,28.45
2022-09-07T11:38:12.737Z,28.73
2022-09-07T11:41:15.077Z,28.91
2022-09-07T11:44:24.775Z,28.80
2022-09-07T11:47:27.037Z,28.91
2022-09-07T11:50:35.788Z,28.92
2022-09-07T11:53:46.380Z,28.75
2022-09-07T11:56:57.479Z,28.92
2022-09-07T12:00:13.842Z,29.12
2022-09-07T12:03:38.428Z,29.37
2022-09-07T12:07:18.150Z,29.10
2022-09-07T12:10:37.683Z,29.07
2022-09-07T12:14:12.489Z,28.68
2022-09-07T12:17:31.023Z,28.54
2022-09-07T12:20:43.181Z,28.72
2022-09-07T12:23:46.461Z,28.77
2022-09-07T12:26:50.350Z,28.82
2022-09-07T12:29:59.547Z,28.75
2022-09-07T12:33:18.422Z,28.67
2022-09-07T12:36:27.100Z,28.58
2022-09-07T12:39:33.262Z,28.67
2022-09-07T12:42:37.521Z,28.72
2022-09-07T12:45:40.014Z,28.95
2022-09-07T12:49:04.646Z,28.93
2022-09-07T12:52:34.982Z,28.97
2022-09-07T12:59:20.439Z,28.87
2022-09-07T13:02:41.883Z,28.93
2022-09-07T13:06:14.809Z,28.88
2022-09-07T13:09:23.702Z,28.86
2022-09-07T13:12:53.702Z,29.11
2022-09-07T13:16:05.815Z,29.15
2022-09-07T13:19:14.959Z,29.16
2022-09-07T13:22:46.717Z,28.98
2022-09-07T13:25:55.824Z,29.04
2022-09-07T13:29:03.063Z,29.04
2022-09-07T13:33:07.953Z,29.03
2022-09-07T13:35:48.144Z,28.99
2022-09-07T13:38:51.005Z,28.94
2022-09-07T13:41:58.005Z,29.05
2022-09-07T13:45:02.475Z,29.12
2022-09-07T13:48:21.701Z,29.09
2022-09-07T13:51:43.126Z,29.05
2022-09-07T13:55:11.161Z,28.79
2022-09-07T13:58:19.835Z,28.68
2022-09-07T14:01:25.992Z,28.80
2022-09-07T14:04:41.663Z,28.88
2022-09-07T14:07:45.965Z,28.76
2022-09-07T14:10:49.003Z,28.80
2022-09-07T14:14:18.120Z,28.80
2022-09-07T14:17:20.881Z,28.77
2022-09-07T14:20:24.687Z,28.64
2022-09-07T14:23:30.555Z,28.62
2022-09-07T14:26:34.215Z,28.69
2022-09-07T14:29:37.030Z,28.83
2022-09-07T14:32:39.550Z,28.96
2022-09-07T14:35:42.161Z,29.00
2022-09-07T14:42:11.795Z,29.02
2022-09-07T14:45:23.339Z,29.02
2022-09-07T14:48:32.223Z,28.91
2022-09-07T14:51:36.770Z,28.76
2022-09-07T14:54:39.863Z,28.63
2022-09-07T14:57:42.293Z,28.62
2022-09-07T15:01:37.007Z,28.48
2022-09-07T15:04:19.367Z,28.38
2022-09-07T15:07:49.738Z,28.58
2022-09-07T15:14:25.328Z,28.60
2022-09-07T15:17:47.831Z,28.52
2022-09-07T15:20:50.552Z,28.37
2022-09-07T15:23:55.462Z,28.20
2022-09-07T15:27:05.219Z,28.13
2022-09-07T15:30:11.247Z,28.19
2022-09-07T15:33:13.817Z,28.33
2022-09-07T15:36:17.109Z,28.42
2022-09-07T15:39:25.689Z,28.50
2022-09-07T15:45:51.365Z,28.46
2022-09-07T15:48:55.274Z,28.31
2022-09-07T15:52:05.690Z,28.13
2022-09-07T15:55:09.244Z,28.06
